Time;durP1;ratioP1;P1;durP2;ratioP2;P2;SDS_P1;SDS_P2;PMS_P1;PMS_P2;Temp;Humidity;BMP_temperature;BMP_pressure;BME280_temperature;BME280_humidity;BME280_pressure;Samples;Min_cycle;Max_cycle;Signal;HPM_P1;HPM_P2
2022/12/22 03:26:19;;;;;;;63.50;26.05;;;10.80;99.90;;;;;;5060755;28;20132;-69
2022/12/22 03:28:45;;;;;;;66.57;25.00;;;10.70;99.90;;;;;;5067949;28;20115;-69
2022/12/22 03:31:11;;;;;;;69.50;25.70;;;10.80;99.90;;;;;;5056004;28;20025;-69
2022/12/22 03:33:37;;;;;;;67.03;26.02;;;10.80;99.90;;;;;;5066162;28;20501;-68
2022/12/22 03:36:04;;;;;;;74.50;27.58;;;10.80;99.90;;;;;;5061995;28;20041;-69
2022/12/22 03:38:29;;;;;;;59.85;27.25;;;10.80;99.90;;;;;;5058955;28;20381;-68
2022/12/22 03:40:55;;;;;;;63.47;26.58;;;10.80;99.90;;;;;;5068875;28;20024;-70
2022/12/22 03:51:35;;;;;;;71.18;26.15;;;10.80;99.90;;;;;;5042953;28;20651;-68
2022/12/22 03:54:00;;;;;;;66.30;26.13;;;10.80;99.90;;;;;;5062770;28;20492;-70
2022/12/22 03:56:26;;;;;;;72.90;25.35;;;10.80;99.90;;;;;;5064784;28;20036;-69
2022/12/22 03:58:52;;;;;;;62.42;23.67;;;10.80;99.90;;;;;;5056043;28;20426;-69
2022/12/22 04:01:17;;;;;;;70.07;24.38;;;10.80;99.90;;;;;;5067379;28;20025;-68
2022/12/22 04:03:43;;;;;;;71.93;25.95;;;10.80;99.90;;;;;;5053863;28;20021;-69
2022/12/22 04:06:09;;;;;;;66.97;24.58;;;10.70;99.90;;;;;;5053032;28;20025;-69
2022/12/22 04:08:34;;;;;;;68.97;24.90;;;10.70;99.90;;;;;;5055094;28;20104;-68
2022/12/22 04:13:44;;;;;;;78.25;25.73;;;10.70;99.90;;;;;;5059072;28;20040;-68
2022/12/22 04:16:09;;;;;;;67.60;24.40;;;10.60;99.90;;;;;;5061232;28;20044;-69
2022/12/22 04:18:35;;;;;;;64.03;21.63;;;10.70;99.90;;;;;;5066151;28;20036;-68
2022/12/22 04:21:00;;;;;;;69.28;23.27;;;10.60;99.90;;;;;;5055420;28;20036;-70
2022/12/22 04:23:26;;;;;;;65.90;23.85;;;10.60;99.90;;;;;;5067249;28;20021;-68
2022/12/22 04:25:52;;;;;;;65.78;24.48;;;10.60;99.90;;;;;;5059856;28;20051;-69
2022/12/22 04:28:18;;;;;;;67.55;23.77;;;10.60;99.90;;;;;;5060465;28;20021;-68
2022/12/22 04:30:44;;;;;;;89.18;22.08;;;10.60;99.90;;;;;;5067367;28;20103;-70
2022/12/22 04:33:19;;;;;;;89.35;22.27;;;10.60;99.90;;;;;;5053853;28;20126;-69
2022/12/22 04:35:44;;;;;;;96.13;23.60;;;10.60;99.90;;;;;;5067606;28;20127;-68
2022/12/22 04:38:10;;;;;;;104.53;24.13;;;10.60;99.90;;;;;;5066132;28;20107;-67
2022/12/22 04:40:36;;;;;;;101.82;24.80;;;10.50;99.90;;;;;;5060509;28;20025;-69
2022/12/22 04:43:01;;;;;;;117.85;24.65;;;10.40;99.90;;;;;;5072208;28;20116;-69
2022/12/22 04:45:27;;;;;;;115.00;23.10;;;10.50;99.90;;;;;;5059867;28;20104;-70
2022/12/22 04:47:52;;;;;;;82.25;23.98;;;10.40;99.90;;;;;;5067588;28;20100;-69
2022/12/22 04:50:18;;;;;;;89.45;23.38;;;10.50;99.90;;;;;;5067343;28;20069;-69
2022/12/22 04:52:44;;;;;;;79.07;23.77;;;10.40;99.90;;;;;;5059479;28;20087;-67
2022/12/22 04:55:09;;;;;;;78.57;23.00;;;10.50;99.90;;;;;;5071957;28;20099;-68
2022/12/22 04:57:35;;;;;;;92.97;22.88;;;10.40;99.90;;;;;;5061093;28;20442;-68
2022/12/22 05:00:01;;;;;;;73.07;22.02;;;10.50;99.90;;;;;;5065844;28;20064;-67
2022/12/22 05:02:27;;;;;;;80.78;21.77;;;10.40;99.90;;;;;;5067888;28;20032;-70
2022/12/22 05:04:52;;;;;;;69.07;21.88;;;10.40;99.90;;;;;;5059262;28;20033;-68
2022/12/22 05:07:19;;;;;;;78.00;21.35;;;10.40;99.90;;;;;;5070770;28;20020;-69
2022/12/22 05:09:45;;;;;;;93.68;23.10;;;10.30;99.90;;;;;;5060158;28;20024;-68
2022/12/22 05:14:54;;;;;;;81.50;22.23;;;10.30;99.90;;;;;;5057509;28;20427;-68
2022/12/22 05:17:20;;;;;;;83.85;22.92;;;10.30;99.90;;;;;;5063816;28;20460;-70
2022/12/22 05:19:45;;;;;;;82.63;23.25;;;10.30;99.90;;;;;;5067144;28;20040;-69
2022/12/22 05:22:11;;;;;;;96.30;25.58;;;10.30;99.90;;;;;;5054812;28;20056;-69
2022/12/22 05:24:37;;;;;;;94.75;25.00;;;10.30;99.90;;;;;;5058140;28;20028;-69
2022/12/22 05:27:02;;;;;;;91.10;24.55;;;10.30;99.90;;;;;;5071634;28;20061;-70
2022/12/22 05:29:28;;;;;;;85.68;23.90;;;10.40;99.90;;;;;;5059275;28;20066;-69
2022/12/22 05:31:54;;;;;;;84.68;23.60;;;10.30;99.90;;;;;;5066374;28;20028;-68
2022/12/22 05:34:20;;;;;;;85.38;23.35;;;10.30;99.90;;;;;;5066177;28;20039;-70
2022/12/22 05:36:46;;;;;;;71.25;23.63;;;10.30;99.90;;;;;;5059308;28;20128;-70
2022/12/22 05:39:11;;;;;;;66.70;20.35;;;10.30;99.90;;;;;;5070931;28;20142;-69
2022/12/22 05:41:37;;;;;;;62.50;21.10;;;10.20;99.90;;;;;;5060357;28;20177;-68
2022/12/22 05:44:02;;;;;;;63.97;20.48;;;10.20;99.90;;;;;;5063424;28;20025;-70
2022/12/22 05:46:28;;;;;;;62.00;19.92;;;10.10;99.90;;;;;;5066960;28;20059;-67
2022/12/22 05:48:54;;;;;;;59.20;19.60;;;10.00;99.90;;;;;;5057526;28;20381;-68
2022/12/22 05:51:19;;;;;;;56.17;17.75;;;9.90;99.90;;;;;;5070104;28;20481;-70
2022/12/22 05:53:45;;;;;;;61.30;20.02;;;9.80;99.90;;;;;;5061634;28;20029;-69
2022/12/22 05:56:11;;;;;;;58.63;18.10;;;9.80;99.90;;;;;;5062754;28;20108;-69
2022/12/22 05:58:38;;;;;;;50.08;18.27;;;9.70;99.90;;;;;;5068413;28;20115;-69
2022/12/22 06:01:03;;;;;;;52.42;17.77;;;9.60;99.90;;;;;;5057614;28;20021;-68
2022/12/22 06:03:29;;;;;;;47.95;16.30;;;9.50;99.90;;;;;;5053724;28;20100;-67
2022/12/22 06:05:55;;;;;;;48.88;17.65;;;9.40;99.90;;;;;;5062458;28;20027;-68
2022/12/22 06:08:21;;;;;;;48.95;15.65;;;9.40;99.90;;;;;;5062229;28;20039;-68
2022/12/22 06:10:47;;;;;;;53.45;16.23;;;9.30;99.90;;;;;;5069863;28;20052;-67
2022/12/22 06:13:12;;;;;;;49.67;15.95;;;9.30;99.90;;;;;;5057070;28;20401;-69
2022/12/22 06:15:38;;;;;;;44.95;15.13;;;9.30;99.90;;;;;;5068083;28;20025;-67
2022/12/22 06:18:04;;;;;;;44.00;14.93;;;9.20;99.90;;;;;;5063425;28;20024;-68
2022/12/22 06:20:29;;;;;;;40.10;13.95;;;9.10;99.90;;;;;;5060681;28;20060;-68
2022/12/22 06:22:55;;;;;;;38.45;13.32;;;9.20;99.90;;;;;;5070659;28;20483;-68
2022/12/22 06:25:20;;;;;;;38.67;13.82;;;9.10;99.90;;;;;;5057510;28;20453;-68
2022/12/22 06:27:46;;;;;;;31.80;11.43;;;9.10;99.90;;;;;;5066444;28;20029;-68
2022/12/22 06:30:13;;;;;;;32.33;11.88;;;9.00;99.90;;;;;;5064792;28;20097;-69
2022/12/22 06:32:39;;;;;;;31.55;11.07;;;9.00;99.90;;;;;;5058619;28;20021;-68
2022/12/22 06:35:06;;;;;;;26.35;9.27;;;8.90;99.90;;;;;;5071692;28;20035;-68
2022/12/22 06:37:32;;;;;;;26.95;9.13;;;8.90;99.90;;;;;;5072491;28;20036;-68
2022/12/22 06:39:57;;;;;;;24.77;8.43;;;8.80;99.90;;;;;;5072638;28;20039;-68
2022/12/22 06:45:07;;;;;;;20.55;7.40;;;8.70;99.90;;;;;;5052707;28;20087;-68
2022/12/22 06:47:33;;;;;;;25.73;7.25;;;8.60;99.90;;;;;;5053627;28;20029;-68
2022/12/22 06:49:58;;;;;;;21.80;5.93;;;8.60;99.90;;;;;;5053723;28;20390;-68
2022/12/22 06:52:24;;;;;;;20.60;5.85;;;8.60;99.90;;;;;;5053542;28;20033;-68
2022/12/22 06:54:49;;;;;;;19.20;6.05;;;8.50;99.90;;;;;;5052476;28;20025;-68
2022/12/22 06:57:15;;;;;;;22.67;5.93;;;8.50;99.90;;;;;;5053366;28;20033;-67
2022/12/22 06:59:41;;;;;;;19.55;4.80;;;8.50;99.90;;;;;;5053623;28;20025;-68
2022/12/22 07:02:09;;;;;;;16.42;5.03;;;8.40;99.90;;;;;;5052844;28;20115;-68
2022/12/22 07:04:34;;;;;;;18.83;4.97;;;8.40;99.90;;;;;;5053682;28;20029;-68
2022/12/22 07:07:00;;;;;;;17.67;4.95;;;8.30;99.90;;;;;;5052346;28;20032;-68
2022/12/22 07:09:25;;;;;;;29.98;6.60;;;8.30;99.90;;;;;;5052297;28;20091;-68
2022/12/22 07:11:51;;;;;;;19.45;5.82;;;8.30;99.90;;;;;;5052256;28;20068;-68
2022/12/22 07:14:16;;;;;;;18.90;5.30;;;8.30;99.90;;;;;;5052139;28;20032;-67
2022/12/22 07:16:42;;;;;;;19.65;6.15;;;8.30;99.90;;;;;;5051778;28;20119;-68
2022/12/22 07:19:08;;;;;;;19.55;5.43;;;8.20;99.90;;;;;;5051978;28;20021;-68
2022/12/22 07:21:33;;;;;;;21.65;5.78;;;8.20;99.90;;;;;;5051725;28;20057;-67
2022/12/22 07:23:59;;;;;;;18.83;5.35;;;8.20;99.90;;;;;;5051670;28;20032;-68
2022/12/22 07:26:25;;;;;;;26.38;7.40;;;8.20;99.90;;;;;;5051636;28;20025;-67
2022/12/22 07:28:50;;;;;;;23.85;5.72;;;8.20;99.90;;;;;;5051627;28;20020;-67
2022/12/22 07:31:17;;;;;;;21.95;5.50;;;8.10;99.90;;;;;;5052026;28;20032;-68
2022/12/22 07:33:42;;;;;;;19.33;5.22;;;8.10;99.90;;;;;;5051500;28;20079;-68
2022/12/22 07:36:14;;;;;;;29.33;6.50;;;8.10;99.90;;;;;;5051400;28;20036;-68
2022/12/22 07:38:41;;;;;;;22.50;6.47;;;8.10;99.90;;;;;;5048879;28;20048;-67
2022/12/22 07:43:54;;;;;;;21.25;6.82;;;8.10;99.90;;;;;;5050711;28;20075;-67
2022/12/22 07:46:21;;;;;;;22.88;6.32;;;8.10;99.90;;;;;;5048933;28;20017;-68
2022/12/22 07:51:35;;;;;;;22.83;5.90;;;8.00;99.90;;;;;;5050005;28;20072;-67
2022/12/22 07:54:03;;;;;;;22.63;5.95;;;8.00;99.90;;;;;;5048811;28;20025;-67
2022/12/22 07:56:29;;;;;;;21.92;5.13;;;8.00;99.90;;;;;;5050987;28;20032;-67
2022/12/22 07:58:54;;;;;;;14.43;5.05;;;8.00;99.90;;;;;;5051273;28;20104;-67
2022/12/22 08:01:20;;;;;;;19.63;5.18;;;7.90;99.90;;;;;;5051205;28;20096;-67
2022/12/22 08:03:45;;;;;;;16.13;5.10;;;7.90;99.90;;;;;;5051116;28;20018;-67
2022/12/22 08:06:11;;;;;;;21.02;4.53;;;7.90;99.90;;;;;;5051087;28;20159;-68
2022/12/22 08:08:37;;;;;;;21.75;5.55;;;7.90;99.90;;;;;;5050805;28;20042;-67
2022/12/22 08:11:03;;;;;;;17.63;5.10;;;7.80;99.90;;;;;;5050646;28;20029;-67
2022/12/22 08:13:29;;;;;;;12.43;3.88;;;7.80;99.90;;;;;;5050984;28;20095;-67
2022/12/22 08:15:54;;;;;;;14.18;5.07;;;7.80;99.90;;;;;;5049718;28;20473;-67
2022/12/22 08:18:20;;;;;;;15.90;5.03;;;7.80;99.90;;;;;;5050748;28;20354;-67
2022/12/22 08:20:50;;;;;;;17.48;5.25;;;7.80;99.90;;;;;;5050963;28;20033;-67
2022/12/22 08:23:16;;;;;;;16.27;4.30;;;7.80;99.90;;;;;;5049749;28;20068;-67
2022/12/22 08:25:44;;;;;;;15.05;4.75;;;7.70;99.90;;;;;;5051180;28;20036;-67
2022/12/22 08:28:10;;;;;;;16.33;4.72;;;7.70;99.90;;;;;;5051154;28;20053;-67
2022/12/22 08:30:37;;;;;;;19.77;4.53;;;7.70;99.90;;;;;;5050748;28;20029;-67
2022/12/22 08:33:03;;;;;;;14.95;4.65;;;7.70;99.90;;;;;;5050718;28;20095;-67
2022/12/22 08:35:29;;;;;;;17.27;4.70;;;7.70;99.90;;;;;;5050883;28;20024;-67
2022/12/22 08:37:54;;;;;;;21.35;5.13;;;7.80;99.90;;;;;;5050661;28;20045;-67
2022/12/22 08:40:27;;;;;;;16.98;5.53;;;7.80;99.90;;;;;;5049476;28;20032;-67
2022/12/22 08:42:57;;;;;;;20.27;5.55;;;7.80;99.90;;;;;;5051574;28;20024;-68
2022/12/22 08:45:23;;;;;;;24.63;5.70;;;7.80;99.90;;;;;;5048606;28;20037;-67
2022/12/22 08:47:49;;;;;;;16.65;5.25;;;7.90;99.90;;;;;;5050784;28;20021;-67
2022/12/22 08:50:15;;;;;;;13.70;4.63;;;7.90;99.90;;;;;;5050426;28;20052;-67
2022/12/22 08:52:40;;;;;;;15.23;4.72;;;8.00;99.90;;;;;;5050973;28;20029;-68
2022/12/22 08:55:07;;;;;;;16.65;5.25;;;8.00;99.90;;;;;;5050716;28;20389;-67
2022/12/22 08:57:33;;;;;;;15.45;5.20;;;8.10;99.90;;;;;;5050630;28;20033;-67
2022/12/22 08:59:58;;;;;;;14.65;4.45;;;8.20;99.90;;;;;;5050707;28;20522;-68
2022/12/22 09:02:24;;;;;;;21.15;4.50;;;8.30;99.90;;;;;;5050897;28;20100;-67
2022/12/22 09:04:49;;;;;;;19.30;4.03;;;8.40;99.90;;;;;;5050789;28;20028;-67
2022/12/22 09:07:15;;;;;;;17.83;5.10;;;8.50;99.90;;;;;;5050464;28;20061;-67
2022/12/22 09:09:40;;;;;;;16.65;4.10;;;8.50;99.90;;;;;;5050853;28;20051;-67
2022/12/22 09:12:06;;;;;;;12.93;3.30;;;8.60;99.90;;;;;;5050725;28;20025;-67
2022/12/22 09:14:32;;;;;;;17.73;3.90;;;8.60;99.90;;;;;;5050624;28;20025;-67
2022/12/22 09:16:58;;;;;;;13.45;3.30;;;8.60;99.90;;;;;;5050278;28;20437;-68
2022/12/22 09:19:24;;;;;;;12.95;3.20;;;8.60;99.90;;;;;;5050896;28;20098;-67
2022/12/22 09:21:49;;;;;;;15.48;3.50;;;8.70;99.90;;;;;;5051779;28;20025;-67
2022/12/22 09:24:15;;;;;;;19.77;4.07;;;8.70;99.90;;;;;;5054034;28;20053;-67
2022/12/22 09:26:41;;;;;;;16.77;3.35;;;8.70;99.90;;;;;;5053001;28;20033;-67
2022/12/22 09:29:07;;;;;;;14.07;3.28;;;8.70;99.90;;;;;;5054118;28;20021;-68
2022/12/22 09:31:33;;;;;;;10.27;3.17;;;8.80;99.90;;;;;;5053748;28;20029;-70
2022/12/22 09:33:59;;;;;;;9.32;2.75;;;8.80;99.90;;;;;;5053514;28;20083;-68
2022/12/22 09:36:27;;;;;;;10.32;2.40;;;8.80;99.90;;;;;;5053306;28;20120;-66
2022/12/22 09:38:53;;;;;;;16.25;5.53;;;8.90;99.90;;;;;;5053818;28;20033;-67
2022/12/22 09:41:42;;;;;;;16.08;3.22;;;8.90;99.90;;;;;;5053946;28;20027;-67
2022/12/22 09:44:36;;;;;;;10.63;2.67;;;9.00;99.90;;;;;;5053866;28;20027;-70
2022/12/22 09:47:17;;;;;;;13.48;2.53;;;9.10;99.90;;;;;;5052019;28;20063;-68
2022/12/22 09:49:42;;;;;;;17.02;3.85;;;9.10;99.90;;;;;;5052416;28;20029;-67
2022/12/22 09:52:32;;;;;;;16.00;3.22;;;9.20;99.90;;;;;;5051082;28;20051;-69
2022/12/22 09:54:58;;;;;;;13.32;2.75;;;9.20;99.90;;;;;;5052192;28;20025;-68
2022/12/22 09:57:30;;;;;;;18.10;3.47;;;9.30;99.90;;;;;;5053341;28;20729;-67
2022/12/22 10:00:05;;;;;;;10.52;2.83;;;9.40;99.90;;;;;;5052224;28;20100;-68
2022/12/22 10:02:42;;;;;;;11.90;2.88;;;9.50;99.90;;;;;;5051227;28;20029;-67
2022/12/22 10:05:27;;;;;;;12.15;2.80;;;9.70;99.90;;;;;;5052900;28;20047;-69
2022/12/22 10:07:57;;;;;;;9.57;2.58;;;9.80;99.90;;;;;;5051425;28;20021;-67
2022/12/22 10:10:27;;;;;;;11.27;2.38;;;9.80;99.90;;;;;;5053230;28;20064;-67
2022/12/22 10:12:59;;;;;;;12.10;2.47;;;9.80;99.90;;;;;;5053848;28;20025;-67
2022/12/22 10:15:25;;;;;;;12.55;2.30;;;9.80;99.90;;;;;;5054469;28;20032;-68
2022/12/22 10:18:07;;;;;;;16.17;2.85;;;9.80;99.90;;;;;;5053553;28;20400;-68
2022/12/22 10:20:33;;;;;;;16.92;2.65;;;9.80;99.90;;;;;;5053703;28;20041;-68
2022/12/22 10:23:05;;;;;;;8.85;2.17;;;9.80;99.90;;;;;;5052557;28;20530;-68
2022/12/22 10:25:42;;;;;;;10.43;2.30;;;9.80;99.90;;;;;;5064869;28;20025;-69
2022/12/22 10:28:21;;;;;;;8.45;2.13;;;9.80;99.90;;;;;;5067381;28;20025;-68
2022/12/22 10:30:46;;;;;;;10.00;2.05;;;9.80;99.90;;;;;;5065470;28;20020;-68
2022/12/22 10:33:14;;;;;;;5.38;1.73;;;9.90;99.90;;;;;;5058212;28;20036;-68
2022/12/22 10:35:57;;;;;;;10.90;1.63;;;10.30;99.90;;;;;;5069791;28;20035;-68
2022/12/22 10:38:38;;;;;;;7.95;1.55;;;10.90;99.90;;;;;;5062171;28;20024;-68
2022/12/22 10:41:17;;;;;;;8.27;1.52;;;11.60;99.90;;;;;;5059559;28;20041;-67
2022/12/22 10:44:02;;;;;;;14.07;1.77;;;12.20;99.90;;;;;;5054345;28;20068;-68
2022/12/22 10:46:45;;;;;;;8.05;2.08;;;12.70;99.90;;;;;;5062491;28;20476;-69
2022/12/22 10:49:29;;;;;;;;;;;12.90;99.90;;;;;;5058616;28;20024;-69
2022/12/22 10:52:12;;;;;;;10.13;1.75;;;13.00;99.90;;;;;;5042381;28;19917;-69
2022/12/22 10:54:41;;;;;;;7.43;1.73;;;13.20;99.90;;;;;;5062733;28;20041;-69
2022/12/22 10:57:13;;;;;;;8.95;2.00;;;13.50;99.90;;;;;;5054503;28;20033;-68
2022/12/22 11:00:00;;;;;;;6.45;1.50;;;13.70;99.90;;;;;;5055663;28;20100;-68
2022/12/22 11:02:36;;;;;;;6.50;1.92;;;13.80;99.90;;;;;;5064214;28;20040;-70
2022/12/22 11:05:09;;;;;;;7.57;1.77;;;13.90;99.90;;;;;;5066882;28;20389;-69
2022/12/22 11:07:37;;;;;;;7.38;1.73;;;14.00;99.90;;;;;;5056010;28;20112;-69
2022/12/22 11:10:26;;;;;;;7.75;1.58;;;13.80;99.90;;;;;;5066842;28;20028;-69
2022/12/22 11:12:55;;;;;;;12.23;2.17;;;13.60;99.90;;;;;;5060260;28;20036;-67
2022/12/22 11:15:32;;;;;;;11.80;1.90;;;13.20;99.90;;;;;;5069084;28;20078;-68
2022/12/22 11:18:26;;;;;;;6.85;1.50;;;13.00;99.90;;;;;;5042956;28;20036;-69
2022/12/22 11:21:16;;;;;;;7.88;2.45;;;12.90;99.90;;;;;;5060240;28;20087;-67
2022/12/22 11:24:02;;;;;;;9.48;2.40;;;12.60;99.90;;;;;;5069113;28;20044;-68
2022/12/22 11:26:52;;;;;;;8.48;1.80;;;12.60;99.90;;;;;;5050044;28;20037;-68
2022/12/22 11:29:55;;;;;;;8.93;2.00;;;12.50;99.90;;;;;;5055457;28;20514;-69
2022/12/22 11:32:47;;;;;;;14.60;2.55;;;12.40;99.90;;;;;;5053270;28;20111;-69
2022/12/22 11:35:24;;;;;;;;;;;12.30;99.90;;;;;;5057572;28;20025;-70
2022/12/22 11:37:55;;;;;;;7.50;2.65;;;12.20;99.90;;;;;;5040629;28;19951;-67
2022/12/22 11:40:30;;;;;;;9.23;2.22;;;12.00;99.90;;;;;;5067550;28;20028;-68
2022/12/22 11:43:10;;;;;;;6.57;2.67;;;11.70;99.90;;;;;;5059480;28;20036;-68
2022/12/22 11:45:43;;;;;;;10.80;2.70;;;11.50;99.90;;;;;;5056374;28;20039;-68
2022/12/22 11:48:29;;;;;;;12.95;2.75;;;11.40;99.90;;;;;;5066057;28;20021;-68
2022/12/22 11:50:58;;;;;;;5.10;2.35;;;11.20;99.90;;;;;;5065244;28;20044;-67
2022/12/22 11:53:38;;;;;;;12.60;2.75;;;11.10;99.90;;;;;;5055051;28;20496;-67
2022/12/22 11:56:22;;;;;;;9.57;3.00;;;11.00;99.90;;;;;;5067807;28;20048;-67
2022/12/22 11:58:58;;;;;;;12.55;3.80;;;10.80;99.90;;;;;;5059662;28;20029;-67
2022/12/22 12:01:48;;;;;;;11.32;3.88;;;10.80;99.90;;;;;;5068673;28;20082;-67
2022/12/22 12:04:19;;;;;;;12.93;6.63;;;10.70;99.90;;;;;;5059424;28;20035;-67
2022/12/22 12:07:20;;;;;;;13.07;4.70;;;10.70;99.90;;;;;;5060511;28;20029;-68
2022/12/22 12:09:58;;;;;;;13.85;5.13;;;10.50;99.90;;;;;;5062194;28;20435;-68
2022/12/22 12:12:53;;;;;;;8.32;3.95;;;10.50;99.90;;;;;;5053741;28;20499;-68
2022/12/22 12:15:37;;;;;;;14.18;5.22;;;10.30;99.90;;;;;;5067920;28;20097;-67
2022/12/22 12:18:22;;;;;;;17.42;6.25;;;10.20;99.90;;;;;;5043442;28;20046;-68
2022/12/22 12:21:20;;;;;;;16.42;6.55;;;10.10;99.90;;;;;;5059561;28;20037;-67
2022/12/22 12:24:06;;;;;;;18.35;7.10;;;10.00;99.90;;;;;;5067949;28;20016;-68
2022/12/22 12:26:55;;;;;;;15.73;6.40;;;10.00;99.90;;;;;;5054658;28;20087;-68
2022/12/22 12:29:25;;;;;;;16.40;6.43;;;9.90;99.90;;;;;;5059283;28;20427;-67
2022/12/22 12:32:15;;;;;;;23.27;7.50;;;9.80;99.90;;;;;;5055164;28;20025;-67
2022/12/22 12:34:45;;;;;;;17.75;7.35;;;9.80;99.90;;;;;;5057952;28;20057;-67
2022/12/22 12:37:17;;;;;;;15.77;5.32;;;9.80;99.90;;;;;;5056464;28;20116;-70
2022/12/22 12:40:05;;;;;;;15.90;6.97;;;9.70;99.90;;;;;;5067963;28;20572;-67
2022/12/22 12:42:41;;;;;;;19.20;7.00;;;9.60;99.90;;;;;;5061329;28;20028;-67
2022/12/22 12:45:34;;;;;;;19.13;7.32;;;9.60;99.90;;;;;;5057454;28;20025;-67
2022/12/22 12:48:23;;;;;;;16.25;7.15;;;9.60;99.90;;;;;;5042292;28;20031;-69
2022/12/22 12:50:56;;;;;;;19.10;6.95;;;9.60;99.90;;;;;;5056436;28;20532;-67
2022/12/22 12:53:23;;;;;;;14.02;6.00;;;9.60;99.90;;;;;;5068385;28;20020;-67
2022/12/22 12:55:49;;;;;;;14.73;5.55;;;9.60;99.90;;;;;;5056911;28;20035;-70
2022/12/22 12:58:39;;;;;;;16.17;6.43;;;9.60;99.90;;;;;;5067716;28;20025;-67
2022/12/22 13:01:26;;;;;;;17.38;6.55;;;9.50;99.90;;;;;;5069086;28;20107;-69
2022/12/22 13:03:52;;;;;;;18.23;7.15;;;9.50;99.90;;;;;;5042418;28;20522;-69
2022/12/22 13:06:56;;;;;;;17.83;6.85;;;9.50;99.90;;;;;;5059082;28;20044;-70
2022/12/22 13:09:28;;;;;;;18.02;8.20;;;9.50;99.90;;;;;;5071774;28;20488;-71
2022/12/22 13:11:55;;;;;;;22.58;8.18;;;9.50;99.90;;;;;;5058627;28;20032;-70
2022/12/22 13:14:55;;;;;;;21.30;8.75;;;9.50;99.90;;;;;;5067102;28;20021;-69
2022/12/22 13:17:41;;;;;;;27.25;9.50;;;9.60;99.90;;;;;;5071721;28;20062;-71
2022/12/22 13:20:14;;;;;;;20.75;9.30;;;9.60;99.90;;;;;;5047557;28;20403;-69
2022/12/22 13:22:42;;;;;;;25.27;9.23;;;9.60;99.90;;;;;;5063835;28;20404;-68
2022/12/22 13:25:16;;;;;;;22.67;7.80;;;9.60;99.90;;;;;;5068983;28;20117;-68
2022/12/22 13:27:42;;;;;;;23.60;7.32;;;9.60;99.90;;;;;;5058414;28;20020;-68
2022/12/22 13:30:15;;;;;;;17.92;9.50;;;9.50;99.90;;;;;;5068595;28;20024;-68
2022/12/22 13:32:41;;;;;;;20.83;9.27;;;9.50;99.90;;;;;;5065736;28;20060;-68
2022/12/22 13:35:16;;;;;;;20.00;9.20;;;9.60;99.90;;;;;;5060329;28;20025;-69
2022/12/22 13:37:47;;;;;;;26.25;10.57;;;9.60;99.90;;;;;;5069763;28;20048;-70
2022/12/22 13:40:20;;;;;;;23.52;10.40;;;9.60;99.90;;;;;;5053730;28;20025;-68
2022/12/22 13:43:00;;;;;;;24.80;10.27;;;9.70;99.90;;;;;;5053475;28;20025;-68
2022/12/22 13:45:38;;;;;;;23.23;9.82;;;9.70;99.90;;;;;;5053865;28;20033;-69
2022/12/22 13:48:44;;;;;;;23.92;10.02;;;9.70;99.90;;;;;;5053458;28;20025;-67
2022/12/22 13:51:21;;;;;;;22.35;10.57;;;9.80;99.90;;;;;;5010438;28;20053;-68
2022/12/22 13:53:51;;;;;;;28.33;12.40;;;9.80;99.90;;;;;;5047525;28;20048;-69
2022/12/22 13:56:24;;;;;;;23.73;11.55;;;9.80;99.90;;;;;;5056655;28;20033;-69
2022/12/22 13:58:59;;;;;;;24.30;11.25;;;9.80;99.90;;;;;;5069867;28;20029;-68
2022/12/22 14:01:25;;;;;;;23.83;11.35;;;9.70;99.90;;;;;;5063809;28;20506;-70
2022/12/22 14:03:56;;;;;;;22.08;10.18;;;9.70;99.90;;;;;;5061313;28;20025;-69
2022/12/22 14:06:36;;;;;;;22.58;11.00;;;9.70;99.90;;;;;;5070050;28;20024;-69
2022/12/22 14:09:18;;;;;;;24.92;11.35;;;9.80;99.90;;;;;;5059781;28;20058;-69
2022/12/22 14:11:53;;;;;;;24.95;12.35;;;9.70;99.90;;;;;;5062385;28;20065;-67
2022/12/22 14:14:28;;;;;;;24.92;11.27;;;9.70;99.90;;;;;;5070792;28;20132;-68
2022/12/22 14:16:56;;;;;;;24.25;10.73;;;9.70;99.90;;;;;;5059436;28;20043;-69
2022/12/22 14:19:23;;;;;;;21.05;10.98;;;9.70;99.90;;;;;;5065351;28;20028;-68
2022/12/22 14:22:04;;;;;;;24.23;11.85;;;9.70;99.90;;;;;;5066790;28;20051;-67
2022/12/22 14:24:36;;;;;;;26.73;11.88;;;9.60;99.90;;;;;;5057221;28;20376;-68
2022/12/22 14:27:01;;;;;;;;;;;9.60;99.90;;;;;;5067734;28;20033;-68
2022/12/22 14:29:28;;;;;;;27.35;12.00;;;9.60;99.90;;;;;;5057525;28;19931;-68
2022/12/22 14:31:57;;;;;;;29.50;12.85;;;9.60;99.90;;;;;;5060229;28;20036;-71
2022/12/22 14:34:31;;;;;;;27.70;12.23;;;9.70;99.90;;;;;;5070233;28;20387;-68
2022/12/22 14:36:58;;;;;;;33.95;13.95;;;9.70;99.90;;;;;;5059298;28;20455;-69
2022/12/22 14:39:32;;;;;;;30.55;13.65;;;9.70;99.90;;;;;;5064455;28;20480;-69
2022/12/22 14:42:01;;;;;;;31.80;12.63;;;9.70;99.90;;;;;;5057286;28;20029;-71
2022/12/22 14:44:40;;;;;;;26.30;12.45;;;9.70;99.90;;;;;;5067886;28;20013;-71
2022/12/22 14:47:16;;;;;;;30.13;13.25;;;9.70;99.90;;;;;;5060932;28;20033;-69
2022/12/22 14:49:46;;;;;;;28.73;13.80;;;9.70;99.90;;;;;;5073123;28;20020;-70
2022/12/22 14:52:20;;;;;;;28.33;12.55;;;9.70;99.90;;;;;;5057835;28;20087;-70
2022/12/22 14:54:49;;;;;;;33.65;13.70;;;9.70;99.90;;;;;;5041211;28;20021;-71
2022/12/22 14:57:26;;;;;;;35.70;14.63;;;9.60;99.90;;;;;;5064625;28;20037;-71
2022/12/22 15:00:05;;;;;;;36.47;13.75;;;9.60;99.90;;;;;;5066661;28;20051;-69
2022/12/22 15:02:47;;;;;;;32.50;14.27;;;9.50;99.90;;;;;;5056698;28;20098;-69
2022/12/22 15:05:27;;;;;;;29.70;13.88;;;9.40;99.90;;;;;;5063952;28;20025;-70
2022/12/22 15:07:55;;;;;;;34.00;14.73;;;9.30;99.90;;;;;;5066304;28;20392;-70
2022/12/22 15:10:23;;;;;;;34.95;15.32;;;9.30;99.90;;;;;;5056578;28;20021;-70
2022/12/22 15:12:50;;;;;;;34.47;15.07;;;9.30;99.90;;;;;;5068582;28;20063;-68
2022/12/22 15:15:20;;;;;;;30.48;13.52;;;9.30;99.90;;;;;;5061273;28;20555;-69
2022/12/22 15:17:49;;;;;;;35.63;15.40;;;9.30;99.90;;;;;;5060332;28;20053;-70
2022/12/22 15:20:19;;;;;;;41.88;17.48;;;9.20;99.90;;;;;;5068618;28;20020;-70
2022/12/22 15:22:44;;;;;;;39.60;17.50;;;9.20;99.90;;;;;;5040740;28;20024;-70
2022/12/22 15:25:28;;;;;;;38.90;17.75;;;9.30;99.90;;;;;;5065247;28;20025;-68
2022/12/22 15:27:53;;;;;;;38.35;16.75;;;9.30;99.90;;;;;;5066461;28;20024;-68
2022/12/22 15:30:21;;;;;;;40.60;17.30;;;9.30;99.90;;;;;;5056159;28;20354;-68
2022/12/22 15:32:48;;;;;;;38.53;17.30;;;9.30;99.90;;;;;;5068672;28;20530;-68
2022/12/22 15:35:22;;;;;;;36.33;16.67;;;9.30;99.90;;;;;;5060938;28;20020;-67
2022/12/22 15:37:48;;;;;;;38.55;17.38;;;9.30;99.90;;;;;;5059869;28;20477;-72
2022/12/22 15:40:15;;;;;;;43.05;17.98;;;9.30;99.90;;;;;;5066054;28;20087;-68
2022/12/22 15:42:41;;;;;;;42.22;18.52;;;9.30;99.90;;;;;;5054382;28;20020;-68
2022/12/22 15:45:07;;;;;;;40.55;17.67;;;9.30;99.90;;;;;;5054023;28;20032;-68
2022/12/22 15:47:32;;;;;;;38.40;18.08;;;9.20;99.90;;;;;;5063224;28;20043;-68
2022/12/22 15:49:58;;;;;;;44.10;17.60;;;9.20;99.90;;;;;;5059256;28;20481;-66
2022/12/22 15:52:24;;;;;;;46.38;20.05;;;9.20;99.90;;;;;;5069117;28;20029;-67
2022/12/22 15:54:50;;;;;;;45.70;21.67;;;9.20;99.90;;;;;;5057105;28;20035;-68
2022/12/22 15:57:15;;;;;;;46.45;18.02;;;9.20;99.90;;;;;;5066926;28;20068;-68
2022/12/22 15:59:41;;;;;;;45.55;19.60;;;9.20;99.90;;;;;;5060807;28;20032;-68
2022/12/22 16:02:11;;;;;;;49.35;22.83;;;9.20;99.90;;;;;;5067857;28;20372;-69
2022/12/22 16:04:36;;;;;;;46.47;21.23;;;9.20;99.90;;;;;;5055704;28;20032;-71
2022/12/22 16:07:02;;;;;;;52.10;21.90;;;9.20;99.90;;;;;;5065927;28;20112;-68
2022/12/22 16:09:37;;;;;;;48.20;20.55;;;9.20;99.90;;;;;;5062481;28;20074;-68
2022/12/22 16:12:12;;;;;;;46.72;21.42;;;9.10;99.90;;;;;;5057313;28;20507;-67
2022/12/22 16:14:39;;;;;;;74.70;23.95;;;9.20;99.90;;;;;;5069090;28;20541;-69
2022/12/22 16:17:10;;;;;;;62.40;24.65;;;9.20;99.90;;;;;;5065371;28;20037;-68
2022/12/22 16:19:35;;;;;;;58.17;23.48;;;9.20;99.90;;;;;;5063062;28;20515;-69
2022/12/22 16:22:01;;;;;;;60.58;25.02;;;9.20;99.90;;;;;;5057148;28;20053;-69
2022/12/22 16:24:33;;;;;;;83.93;26.73;;;9.20;99.90;;;;;;5068404;28;20056;-68
2022/12/22 16:27:00;;;;;;;67.65;23.35;;;9.20;99.90;;;;;;5057673;28;20091;-69
2022/12/22 16:29:26;;;;;;;72.82;24.77;;;9.20;99.90;;;;;;5062117;28;20212;-69
2022/12/22 16:31:52;;;;;;;57.63;24.85;;;9.20;99.90;;;;;;5057504;28;20362;-68
2022/12/22 16:34:18;;;;;;;61.38;25.77;;;9.20;99.90;;;;;;5072313;28;20357;-69
2022/12/22 16:36:43;;;;;;;51.28;20.88;;;9.20;99.90;;;;;;5059396;28;20037;-69
2022/12/22 16:39:09;;;;;;;61.15;22.30;;;9.20;99.90;;;;;;5067010;28;20037;-68
2022/12/22 16:41:35;;;;;;;58.60;24.73;;;9.20;99.90;;;;;;5066226;28;20037;-68
2022/12/22 16:44:01;;;;;;;57.78;23.83;;;9.20;99.90;;;;;;5060959;28;20499;-69
2022/12/22 16:46:27;;;;;;;67.35;24.73;;;9.20;99.90;;;;;;5072128;28;20101;-67